createdAt,value
2022-12-22T00:54:33.740Z,31.19
2022-12-22T00:55:34.613Z,31.27
2022-12-22T00:56:34.612Z,31.24
2022-12-22T00:57:34.601Z,31.27
2022-12-22T00:58:34.586Z,31.27
2022-12-22T00:59:34.604Z,31.26
2022-12-22T01:00:34.581Z,31.26
2022-12-22T01:01:34.701Z,31.31
2022-12-22T01:02:34.887Z,31.26
2022-12-22T01:03:34.668Z,31.28
2022-12-22T01:04:34.537Z,31.27
2022-12-22T01:05:34.542Z,31.28
2022-12-22T01:06:34.515Z,31.28
2022-12-22T01:07:34.555Z,31.32
2022-12-22T01:08:34.518Z,31.34
2022-12-22T01:09:34.496Z,31.33
2022-12-22T01:10:34.515Z,31.29
2022-12-22T01:11:34.475Z,31.32
2022-12-22T01:12:34.515Z,31.36
2022-12-22T01:13:33.454Z,31.36
2022-12-22T01:14:34.448Z,31.34
2022-12-22T01:15:34.486Z,31.39
2022-12-22T01:16:34.508Z,31.36
2022-12-22T01:17:34.422Z,31.36
2022-12-22T01:18:34.413Z,31.36
2022-12-22T01:19:34.405Z,31.37
2022-12-22T01:20:34.394Z,31.41
2022-12-22T01:21:34.389Z,31.38
2022-12-22T01:22:34.370Z,31.34
2022-12-22T01:23:34.365Z,31.34
2022-12-22T01:24:34.356Z,31.30
2022-12-22T01:25:34.351Z,31.36
2022-12-22T01:26:34.360Z,31.33
2022-12-22T01:27:34.326Z,31.37
2022-12-22T01:28:34.319Z,31.41
2022-12-22T01:29:34.314Z,31.42
2022-12-22T01:30:34.380Z,31.37
2022-12-22T01:31:34.296Z,31.39
2022-12-22T01:32:34.285Z,31.42
2022-12-22T01:33:34.282Z,31.42
2022-12-22T01:34:34.263Z,31.41
2022-12-22T01:35:34.256Z,31.41
2022-12-22T01:36:34.251Z,31.44
2022-12-22T01:37:34.247Z,31.48
2022-12-22T01:38:34.231Z,31.45
2022-12-22T01:39:34.221Z,31.42
2022-12-22T01:40:34.212Z,31.49
2022-12-22T01:41:34.206Z,31.42
2022-12-22T01:42:34.231Z,31.42
2022-12-22T01:43:34.224Z,31.41
2022-12-22T01:44:34.174Z,31.38
2022-12-22T01:45:34.203Z,31.39
2022-12-22T01:46:34.240Z,31.41
2022-12-22T01:47:34.157Z,31.42
2022-12-22T01:48:34.139Z,31.42
2022-12-22T01:49:34.135Z,31.34
2022-12-22T01:50:34.128Z,31.37
2022-12-22T01:51:34.139Z,31.38
2022-12-22T01:52:34.123Z,31.37
2022-12-22T01:53:34.116Z,31.37
2022-12-22T01:54:34.093Z,31.41
2022-12-22T01:55:34.089Z,31.42
2022-12-22T01:56:34.078Z,31.45
2022-12-22T01:57:34.054Z,31.42
2022-12-22T01:58:34.086Z,31.42
2022-12-22T01:59:34.056Z,31.43
2022-12-22T02:00:34.035Z,31.42
2022-12-22T02:01:34.184Z,31.42
2022-12-22T02:02:34.171Z,31.38
2022-12-22T02:03:34.110Z,31.38
2022-12-22T02:04:33.995Z,31.42
2022-12-22T02:05:33.984Z,31.36
2022-12-22T02:06:33.982Z,31.43
2022-12-22T02:07:33.975Z,31.43
2022-12-22T02:08:33.973Z,31.47
2022-12-22T02:09:33.958Z,31.44
2022-12-22T02:10:33.945Z,31.40
2022-12-22T02:11:33.936Z,31.43
2022-12-22T02:12:33.923Z,31.40
2022-12-22T02:13:33.951Z,31.40
2022-12-22T02:14:33.937Z,31.43
2022-12-22T02:15:33.913Z,31.36
2022-12-22T02:16:33.945Z,31.43
2022-12-22T02:17:33.900Z,31.40
2022-12-22T02:18:33.955Z,31.40
2022-12-22T02:19:33.873Z,31.39
2022-12-22T02:20:33.878Z,31.43
2022-12-22T02:21:33.843Z,31.38
2022-12-22T02:22:33.841Z,31.35
2022-12-22T10:50:29.295Z,31.96
2022-12-22T16:44:05.320Z,31.64
2022-12-22T20:32:27.986Z,31.62
2022-12-22T20:33:24.111Z,31.59
2022-12-22T20:34:24.098Z,31.59
2022-12-22T20:35:24.089Z,31.62
2022-12-22T20:36:24.085Z,31.58
2022-12-22T20:37:24.067Z,31.56
2022-12-22T20:38:24.092Z,31.56
2022-12-22T20:39:24.065Z,31.60
2022-12-22T20:40:24.054Z,31.59
2022-12-22T20:41:24.033Z,31.58
2022-12-22T20:42:24.045Z,31.54
2022-12-22T20:43:24.017Z,31.53
2022-12-22T20:44:24.029Z,31.55
2022-12-22T20:45:24.005Z,31.56
2022-12-22T20:46:24.065Z,31.55
2022-12-22T20:47:23.978Z,31.49
2022-12-22T20:48:23.984Z,31.52
2022-12-22T20:49:23.965Z,31.52
2022-12-22T20:50:23.955Z,31.58
2022-12-22T20:51:23.948Z,31.56
2022-12-22T20:52:23.947Z,31.58
2022-12-22T20:53:23.935Z,31.52
2022-12-22T20:54:23.951Z,31.48
2022-12-22T20:55:23.920Z,31.49
2022-12-22T20:56:23.897Z,31.45
2022-12-22T20:57:23.890Z,31.46
2022-12-22T20:58:23.880Z,31.46
2022-12-22T20:59:23.899Z,31.49
2022-12-22T21:00:23.870Z,31.46
2022-12-22T21:01:23.910Z,31.50
2022-12-22T21:02:24.025Z,31.48
2022-12-22T21:03:23.980Z,31.52
2022-12-22T21:04:23.829Z,31.56
2022-12-22T21:05:23.822Z,31.50
2022-12-22T21:06:23.815Z,31.51
2022-12-22T21:07:23.813Z,31.47
2022-12-22T21:08:23.791Z,31.51
2022-12-22T21:09:23.806Z,31.53
2022-12-22T21:10:23.798Z,31.53
2022-12-22T21:11:23.779Z,31.51
2022-12-22T21:12:23.760Z,31.54
2022-12-22T21:13:23.749Z,31.53
2022-12-22T21:14:23.741Z,31.51
2022-12-22T21:15:23.783Z,31.51
2022-12-22T21:16:23.929Z,31.46
2022-12-22T21:17:23.718Z,31.52
2022-12-22T21:18:23.736Z,31.51
2022-12-22T21:19:23.697Z,31.51
2022-12-22T21:20:23.719Z,31.52
2022-12-22T21:21:23.684Z,31.54
2022-12-22T21:22:23.679Z,31.50
2022-12-22T21:23:23.657Z,31.48
2022-12-22T21:24:23.649Z,31.58
2022-12-22T21:25:23.639Z,31.52
2022-12-22T21:26:23.660Z,31.58
2022-12-22T21:27:23.661Z,31.54
2022-12-22T21:28:23.634Z,31.58
2022-12-22T21:29:23.613Z,31.54
2022-12-22T21:30:23.596Z,31.52
2022-12-22T21:31:23.670Z,31.54
2022-12-22T21:32:23.636Z,31.52
2022-12-22T21:33:23.605Z,31.54
2022-12-22T21:34:23.560Z,31.47
2022-12-22T21:35:23.552Z,31.51
2022-12-22T21:36:23.545Z,31.54
2022-12-22T21:37:23.531Z,31.55
2022-12-22T21:38:23.527Z,31.45
2022-12-22T21:39:23.535Z,31.47
2022-12-22T21:40:23.509Z,31.45
2022-12-22T21:41:23.497Z,31.51
2022-12-22T21:42:23.517Z,31.45
2022-12-22T21:43:23.481Z,31.51
2022-12-22T21:44:23.476Z,31.49
2022-12-22T21:45:23.457Z,31.52
2022-12-22T21:46:23.630Z,31.54
2022-12-22T21:47:23.454Z,31.53
2022-12-22T21:48:23.439Z,31.49
2022-12-22T21:49:23.432Z,31.51
2022-12-22T21:50:23.420Z,31.50
2022-12-22T21:51:23.414Z,31.53
2022-12-22T21:52:23.400Z,31.54
2022-12-22T21:53:23.388Z,31.52
2022-12-22T21:54:23.401Z,31.52
2022-12-22T21:55:23.382Z,31.46
2022-12-22T21:56:23.365Z,31.54
2022-12-22T21:57:23.357Z,31.49
2022-12-22T21:58:23.375Z,31.46
2022-12-22T21:59:23.338Z,31.48
2022-12-22T22:00:23.331Z,31.52
2022-12-22T22:01:23.358Z,31.45
2022-12-22T22:02:23.487Z,31.50
2022-12-22T22:03:23.314Z,31.45
2022-12-22T22:04:23.305Z,31.50
2022-12-22T22:05:23.293Z,31.52
2022-12-22T22:06:23.276Z,31.52
2022-12-22T22:07:23.286Z,31.49
2022-12-22T22:08:23.259Z,31.49
2022-12-22T22:09:23.252Z,31.48
2022-12-22T22:10:23.239Z,31.49
2022-12-22T22:11:23.237Z,31.45
2022-12-22T22:12:28.102Z,31.46
2022-12-22T22:13:23.211Z,31.46
2022-12-22T22:14:23.221Z,31.47
2022-12-22T22:15:23.192Z,31.46
2022-12-22T22:16:23.231Z,31.46
2022-12-22T22:17:23.182Z,31.46
2022-12-22T22:18:23.179Z,31.51
2022-12-22T22:19:23.179Z,31.51
2022-12-22T22:20:23.156Z,31.53
2022-12-22T22:21:23.142Z,31.48
2022-12-22T22:22:23.138Z,31.49
2022-12-22T22:23:23.121Z,31.56
2022-12-22T22:24:23.113Z,31.53
2022-12-22T22:25:23.105Z,31.50
2022-12-22T22:26:23.104Z,31.50
2022-12-22T22:27:23.121Z,31.48
2022-12-22T22:28:23.077Z,31.51
2022-12-22T22:29:23.075Z,31.53
2022-12-22T22:30:23.088Z,31.51
2022-12-22T22:31:23.097Z,31.50
2022-12-22T22:32:23.078Z,31.48
2022-12-22T22:33:23.039Z,31.51
2022-12-22T22:34:23.027Z,31.50
2022-12-22T22:35:23.012Z,31.48
2022-12-22T22:36:23.031Z,31.48
2022-12-22T22:37:23.031Z,31.47
2022-12-22T22:38:23.077Z,31.46
2022-12-22T22:39:22.986Z,31.47
2022-12-22T22:40:22.976Z,31.50
2022-12-22T22:41:22.969Z,31.51
2022-12-22T22:42:22.961Z,31.51
2022-12-22T22:43:22.943Z,31.46
2022-12-22T22:44:22.936Z,31.51
2022-12-22T22:45:23.062Z,31.50
2022-12-22T22:46:23.017Z,31.43
2022-12-22T22:47:22.911Z,31.47
2022-12-22T22:48:22.907Z,31.46
2022-12-22T22:49:28.359Z,31.40
2022-12-22T22:50:22.889Z,31.48
2022-12-22T22:51:22.884Z,31.48
2022-12-22T22:52:22.861Z,31.48
2022-12-22T22:53:22.858Z,31.48
2022-12-22T22:54:22.843Z,31.45
2022-12-22T22:55:22.849Z,31.47
2022-12-22T22:56:22.841Z,31.47
2022-12-22T22:57:22.817Z,31.44
2022-12-22T22:58:22.819Z,31.51
2022-12-22T22:59:22.803Z,31.47
2022-12-22T23:00:22.810Z,31.47
2022-12-22T23:01:22.787Z,31.44
2022-12-22T23:02:23.045Z,31.44
2022-12-22T23:03:22.864Z,31.47
2022-12-22T23:04:22.879Z,31.43
2022-12-22T23:05:23.306Z,31.44
2022-12-22T23:06:22.739Z,31.48
2022-12-22T23:07:22.729Z,31.47
2022-12-22T23:08:22.719Z,31.47
2022-12-22T23:09:22.723Z,31.44
2022-12-22T23:10:22.703Z,31.44
2022-12-22T23:11:22.703Z,31.44
2022-12-22T23:12:22.688Z,31.50
2022-12-22T23:13:22.672Z,31.47
2022-12-22T23:14:22.691Z,31.48
2022-12-22T23:15:22.657Z,31.49
2022-12-22T23:16:22.709Z,31.43
2022-12-22T23:17:22.649Z,31.43
2022-12-22T23:18:22.662Z,31.41
2022-12-22T23:19:22.620Z,31.41
2022-12-22T23:20:22.614Z,31.43
2022-12-22T23:21:22.614Z,31.37
2022-12-22T23:22:22.598Z,31.36
2022-12-22T23:23:22.600Z,31.40
2022-12-22T23:24:22.593Z,31.32
2022-12-22T23:25:22.578Z,31.36
2022-12-22T23:26:22.586Z,31.35
2022-12-22T23:27:22.547Z,31.35
2022-12-22T23:28:22.540Z,31.36
2022-12-22T23:29:22.541Z,31.30
2022-12-22T23:30:22.536Z,31.36
2022-12-22T23:31:22.590Z,31.34
2022-12-22T23:32:22.508Z,31.32
2022-12-22T23:33:22.511Z,31.31
2022-12-22T23:34:22.525Z,31.28
2022-12-22T23:35:22.476Z,31.25
2022-12-22T23:36:22.470Z,31.34
2022-12-22T23:37:22.462Z,31.34
2022-12-22T23:38:22.458Z,31.28
2022-12-22T23:39:22.467Z,31.29
2022-12-22T23:40:50.959Z,31.30
2022-12-22T23:41:22.429Z,31.30
2022-12-22T23:42:22.415Z,31.24
2022-12-22T23:43:22.547Z,31.30
2022-12-22T23:44:22.403Z,31.37
2022-12-22T23:45:22.393Z,31.27
2022-12-22T23:46:22.437Z,31.26
2022-12-22T23:47:22.414Z,31.28
2022-12-22T23:48:22.370Z,31.25
2022-12-22T23:49:22.357Z,31.19
2022-12-22T23:50:22.378Z,31.19
2022-12-22T23:51:22.340Z,31.22
2022-12-22T23:52:22.339Z,31.18
2022-12-22T23:53:22.361Z,31.21
2022-12-22T23:54:22.311Z,31.21
2022-12-22T23:55:22.324Z,31.25
2022-12-22T23:56:22.324Z,31.23
2022-12-22T23:57:22.284Z,31.22
2022-12-22T23:58:22.271Z,31.22
2022-12-22T23:59:22.262Z,31.25
